createdAt,value
2022-11-16T00:01:04.752Z,76
2022-11-16T00:16:04.790Z,69
2022-11-16T00:31:05.255Z,67
2022-11-16T00:46:04.469Z,60
2022-11-16T01:01:04.975Z,65
2022-11-16T01:16:05.658Z,67
2022-11-16T01:31:05.049Z,68
2022-11-16T01:46:05.380Z,68
2022-11-16T02:01:05.024Z,69
2022-11-16T02:16:04.940Z,77
2022-11-16T02:31:05.492Z,71
2022-11-16T02:46:05.155Z,76
2022-11-16T03:01:05.480Z,72
2022-11-16T03:16:05.652Z,74
2022-11-16T03:31:05.581Z,71
2022-11-16T03:46:05.271Z,66
2022-11-16T04:01:05.100Z,53
2022-11-16T04:16:05.188Z,46
2022-11-16T04:31:05.602Z,48
2022-11-16T04:46:05.278Z,41
2022-11-16T05:01:04.800Z,38
2022-11-16T05:16:04.792Z,37
2022-11-16T05:31:05.365Z,35
2022-11-16T05:46:04.844Z,35
2022-11-16T06:01:04.737Z,38
2022-11-16T06:16:04.834Z,39
2022-11-16T06:31:05.336Z,40
2022-11-16T06:46:05.512Z,44
2022-11-16T07:01:04.976Z,49
2022-11-16T07:16:05.314Z,51
2022-11-16T07:31:05.167Z,49
2022-11-16T07:46:41.520Z,52
2022-11-16T08:01:05.346Z,55
2022-11-16T08:16:04.756Z,69
2022-11-16T08:31:05.352Z,62
2022-11-16T08:46:04.529Z,68
2022-11-16T09:01:05.655Z,71
2022-11-16T09:16:05.599Z,73
2022-11-16T09:31:05.122Z,83
2022-11-16T09:46:05.330Z,86
2022-11-16T10:01:04.931Z,91
2022-11-16T10:16:04.770Z,89
2022-11-16T10:31:05.382Z,87
2022-11-16T10:46:05.078Z,89
2022-11-16T11:01:05.389Z,95
2022-11-16T11:16:04.571Z,80
2022-11-16T11:31:05.134Z,43
2022-11-16T11:46:05.187Z,24
2022-11-16T12:01:05.602Z,25
2022-11-16T12:16:04.843Z,12
2022-11-16T12:31:05.514Z,13
2022-11-16T12:46:04.797Z,13
2022-11-16T13:01:05.180Z,13
2022-11-16T13:16:05.171Z,13
2022-11-16T13:31:05.533Z,14
2022-11-16T13:46:04.628Z,15
2022-11-16T14:01:05.644Z,14
2022-11-16T14:16:05.424Z,14
2022-11-16T14:31:04.455Z,19
2022-11-16T14:46:05.502Z,21
2022-11-16T15:01:05.546Z,24
2022-11-16T15:16:04.903Z,14
2022-11-16T15:31:04.913Z,14
2022-11-16T15:46:04.632Z,13
2022-11-16T16:01:04.989Z,12
2022-11-16T16:16:05.527Z,24
2022-11-16T16:31:05.270Z,32
2022-11-16T16:46:05.322Z,17
2022-11-16T17:01:05.184Z,18
2022-11-16T17:16:04.729Z,18
2022-11-16T17:31:05.295Z,17
2022-11-16T17:46:04.559Z,17
2022-11-16T18:01:04.944Z,15
2022-11-16T18:16:04.545Z,12
2022-11-16T18:31:04.765Z,12
2022-11-16T18:46:05.408Z,9
2022-11-16T19:01:04.547Z,8
2022-11-16T19:16:04.806Z,8
2022-11-16T19:31:04.853Z,5
2022-11-16T19:46:05.017Z,6
2022-11-16T20:01:05.595Z,7
2022-11-16T20:16:04.572Z,6
2022-11-16T20:31:05.251Z,7
2022-11-16T20:46:04.759Z,6
2022-11-16T21:01:05.141Z,5
2022-11-16T21:16:05.590Z,5
2022-11-16T21:31:05.317Z,5
2022-11-16T21:46:05.438Z,4
2022-11-16T22:01:04.894Z,5
2022-11-16T22:16:05.487Z,5
2022-11-16T22:31:05.190Z,5
2022-11-16T22:46:04.781Z,6
2022-11-16T23:01:05.167Z,7
2022-11-16T23:16:04.764Z,6
2022-11-16T23:31:05.469Z,7
2022-11-16T23:46:04.586Z,8
